sensor_id;sensor_type;location;lat;lon;timestamp;P1;durP1;ratioP1;P2;durP2;ratioP2
5303;SDS011;2674;49.722;10.892;2023-09-18T00:01:40;4.73;;;3.63;;
5303;SDS011;2674;49.722;10.892;2023-09-18T00:04:06;5.10;;;4.70;;
5303;SDS011;2674;49.722;10.892;2023-09-18T00:06:32;4.00;;;3.60;;
5303;SDS011;2674;49.722;10.892;2023-09-18T00:08:58;6.07;;;4.00;;
5303;SDS011;2674;49.722;10.892;2023-09-18T00:11:27;4.30;;;3.93;;
5303;SDS011;2674;49.722;10.892;2023-09-18T00:13:53;4.43;;;4.03;;
5303;SDS011;2674;49.722;10.892;2023-09-18T00:16:19;5.63;;;4.17;;
5303;SDS011;2674;49.722;10.892;2023-09-18T00:18:44;5.83;;;4.20;;
5303;SDS011;2674;49.722;10.892;2023-09-18T00:21:11;17.23;;;6.53;;
5303;SDS011;2674;49.722;10.892;2023-09-18T00:23:37;4.47;;;4.03;;
5303;SDS011;2674;49.722;10.892;2023-09-18T00:26:03;5.80;;;4.53;;
5303;SDS011;2674;49.722;10.892;2023-09-18T00:28:29;4.87;;;4.10;;
5303;SDS011;2674;49.722;10.892;2023-09-18T00:30:55;5.60;;;5.10;;
5303;SDS011;2674;49.722;10.892;2023-09-18T00:33:21;11.13;;;4.70;;
5303;SDS011;2674;49.722;10.892;2023-09-18T00:35:47;3.60;;;3.33;;
5303;SDS011;2674;49.722;10.892;2023-09-18T00:38:14;8.93;;;3.60;;
5303;SDS011;2674;49.722;10.892;2023-09-18T00:40:40;5.67;;;5.00;;
5303;SDS011;2674;49.722;10.892;2023-09-18T00:43:06;4.60;;;4.20;;
5303;SDS011;2674;49.722;10.892;2023-09-18T00:45:32;6.10;;;4.47;;
5303;SDS011;2674;49.722;10.892;2023-09-18T00:47:59;5.80;;;4.43;;
5303;SDS011;2674;49.722;10.892;2023-09-18T00:50:25;4.87;;;4.03;;
5303;SDS011;2674;49.722;10.892;2023-09-18T00:52:51;5.33;;;4.13;;
5303;SDS011;2674;49.722;10.892;2023-09-18T00:55:17;5.70;;;4.20;;
5303;SDS011;2674;49.722;10.892;2023-09-18T00:57:44;6.77;;;4.30;;
5303;SDS011;2674;49.722;10.892;2023-09-18T01:00:11;5.40;;;4.47;;
5303;SDS011;2674;49.722;10.892;2023-09-18T01:02:42;9.13;;;4.50;;
5303;SDS011;2674;49.722;10.892;2023-09-18T01:05:10;4.50;;;4.07;;
5303;SDS011;2674;49.722;10.892;2023-09-18T01:07:36;4.80;;;4.10;;
5303;SDS011;2674;49.722;10.892;2023-09-18T01:10:02;6.30;;;4.30;;
5303;SDS011;2674;49.722;10.892;2023-09-18T01:15:22;4.83;;;4.03;;
5303;SDS011;2674;49.722;10.892;2023-09-18T01:17:55;6.20;;;3.80;;
5303;SDS011;2674;49.722;10.892;2023-09-18T01:20:21;4.90;;;4.10;;
5303;SDS011;2674;49.722;10.892;2023-09-18T01:22:47;5.03;;;4.53;;
5303;SDS011;2674;49.722;10.892;2023-09-18T01:25:15;4.07;;;3.77;;
5303;SDS011;2674;49.722;10.892;2023-09-18T01:27:41;4.67;;;4.17;;
5303;SDS011;2674;49.722;10.892;2023-09-18T01:30:07;3.73;;;3.43;;
5303;SDS011;2674;49.722;10.892;2023-09-18T01:32:34;3.97;;;3.57;;
5303;SDS011;2674;49.722;10.892;2023-09-18T01:35:02;5.57;;;4.53;;
5303;SDS011;2674;49.722;10.892;2023-09-18T01:37:30;3.73;;;3.40;;
5303;SDS011;2674;49.722;10.892;2023-09-18T01:39:58;4.10;;;3.70;;
5303;SDS011;2674;49.722;10.892;2023-09-18T01:42:24;6.20;;;4.23;;
5303;SDS011;2674;49.722;10.892;2023-09-18T01:44:54;4.23;;;3.33;;
5303;SDS011;2674;49.722;10.892;2023-09-18T01:47:21;4.80;;;3.77;;
5303;SDS011;2674;49.722;10.892;2023-09-18T01:49:51;5.07;;;3.83;;
5303;SDS011;2674;49.722;10.892;2023-09-18T01:52:17;3.60;;;3.30;;
5303;SDS011;2674;49.722;10.892;2023-09-18T01:54:43;3.80;;;3.50;;
5303;SDS011;2674;49.722;10.892;2023-09-18T01:57:09;4.40;;;4.00;;
5303;SDS011;2674;49.722;10.892;2023-09-18T01:59:37;5.40;;;3.33;;
5303;SDS011;2674;49.722;10.892;2023-09-18T02:02:04;3.70;;;3.40;;
5303;SDS011;2674;49.722;10.892;2023-09-18T02:04:32;4.30;;;3.90;;
5303;SDS011;2674;49.722;10.892;2023-09-18T02:06:58;4.43;;;4.03;;
5303;SDS011;2674;49.722;10.892;2023-09-18T02:09:24;5.67;;;4.43;;
5303;SDS011;2674;49.722;10.892;2023-09-18T02:11:50;5.07;;;3.90;;
5303;SDS011;2674;49.722;10.892;2023-09-18T02:14:15;4.80;;;3.80;;
5303;SDS011;2674;49.722;10.892;2023-09-18T02:16:44;3.60;;;3.30;;
5303;SDS011;2674;49.722;10.892;2023-09-18T02:19:11;3.90;;;3.50;;
5303;SDS011;2674;49.722;10.892;2023-09-18T02:21:42;3.77;;;3.37;;
5303;SDS011;2674;49.722;10.892;2023-09-18T02:24:08;3.77;;;3.47;;
5303;SDS011;2674;49.722;10.892;2023-09-18T02:26:34;4.43;;;4.03;;
5303;SDS011;2674;49.722;10.892;2023-09-18T02:29:02;4.20;;;3.80;;
5303;SDS011;2674;49.722;10.892;2023-09-18T02:31:30;3.77;;;3.40;;
5303;SDS011;2674;49.722;10.892;2023-09-18T02:33:56;3.77;;;3.47;;
5303;SDS011;2674;49.722;10.892;2023-09-18T02:36:23;3.47;;;3.27;;
5303;SDS011;2674;49.722;10.892;2023-09-18T02:38:49;4.10;;;3.13;;
5303;SDS011;2674;49.722;10.892;2023-09-18T02:41:14;4.23;;;3.50;;
5303;SDS011;2674;49.722;10.892;2023-09-18T02:43:40;3.43;;;2.97;;
5303;SDS011;2674;49.722;10.892;2023-09-18T02:46:08;3.93;;;3.50;;
5303;SDS011;2674;49.722;10.892;2023-09-18T02:48:34;3.73;;;3.43;;
5303;SDS011;2674;49.722;10.892;2023-09-18T02:51:00;4.90;;;3.63;;
5303;SDS011;2674;49.722;10.892;2023-09-18T02:53:26;3.83;;;3.53;;
5303;SDS011;2674;49.722;10.892;2023-09-18T02:55:53;3.77;;;3.47;;
5303;SDS011;2674;49.722;10.892;2023-09-18T02:58:21;15.73;;;3.80;;
5303;SDS011;2674;49.722;10.892;2023-09-18T03:00:48;3.57;;;3.27;;
5303;SDS011;2674;49.722;10.892;2023-09-18T03:03:15;4.03;;;3.27;;
5303;SDS011;2674;49.722;10.892;2023-09-18T03:05:42;4.17;;;3.77;;
5303;SDS011;2674;49.722;10.892;2023-09-18T03:08:10;5.40;;;3.87;;
5303;SDS011;2674;49.722;10.892;2023-09-18T03:10:40;4.77;;;3.87;;
5303;SDS011;2674;49.722;10.892;2023-09-18T03:13:08;4.63;;;3.77;;
5303;SDS011;2674;49.722;10.892;2023-09-18T03:15:35;4.43;;;4.00;;
5303;SDS011;2674;49.722;10.892;2023-09-18T03:18:02;4.17;;;3.43;;
5303;SDS011;2674;49.722;10.892;2023-09-18T03:20:29;4.57;;;4.17;;
5303;SDS011;2674;49.722;10.892;2023-09-18T03:23:00;5.33;;;4.33;;
5303;SDS011;2674;49.722;10.892;2023-09-18T03:25:27;4.00;;;3.33;;
5303;SDS011;2674;49.722;10.892;2023-09-18T03:27:54;7.80;;;3.97;;
5303;SDS011;2674;49.722;10.892;2023-09-18T03:30:21;3.80;;;3.40;;
5303;SDS011;2674;49.722;10.892;2023-09-18T03:32:49;4.43;;;3.67;;
5303;SDS011;2674;49.722;10.892;2023-09-18T03:35:15;4.03;;;3.47;;
5303;SDS011;2674;49.722;10.892;2023-09-18T03:37:44;3.70;;;3.40;;
5303;SDS011;2674;49.722;10.892;2023-09-18T03:40:11;4.30;;;3.83;;
5303;SDS011;2674;49.722;10.892;2023-09-18T03:42:37;4.70;;;4.23;;
5303;SDS011;2674;49.722;10.892;2023-09-18T03:45:05;7.03;;;4.80;;
5303;SDS011;2674;49.722;10.892;2023-09-18T03:47:31;3.93;;;3.53;;
5303;SDS011;2674;49.722;10.892;2023-09-18T03:49:58;5.17;;;3.83;;
5303;SDS011;2674;49.722;10.892;2023-09-18T03:52:24;3.83;;;3.53;;
5303;SDS011;2674;49.722;10.892;2023-09-18T03:54:50;4.40;;;4.00;;
5303;SDS011;2674;49.722;10.892;2023-09-18T03:57:16;3.53;;;3.23;;
5303;SDS011;2674;49.722;10.892;2023-09-18T03:59:42;4.70;;;3.53;;
5303;SDS011;2674;49.722;10.892;2023-09-18T04:02:07;6.80;;;5.10;;
5303;SDS011;2674;49.722;10.892;2023-09-18T04:04:33;5.07;;;4.50;;
5303;SDS011;2674;49.722;10.892;2023-09-18T04:06:59;6.23;;;3.90;;
5303;SDS011;2674;49.722;10.892;2023-09-18T04:09:25;6.73;;;4.00;;
5303;SDS011;2674;49.722;10.892;2023-09-18T04:11:51;4.73;;;3.80;;
5303;SDS011;2674;49.722;10.892;2023-09-18T04:14:17;5.33;;;4.00;;
5303;SDS011;2674;49.722;10.892;2023-09-18T04:16:42;4.83;;;4.00;;
5303;SDS011;2674;49.722;10.892;2023-09-18T04:19:09;7.60;;;4.20;;
5303;SDS011;2674;49.722;10.892;2023-09-18T04:21:35;5.10;;;4.13;;
5303;SDS011;2674;49.722;10.892;2023-09-18T04:24:01;4.07;;;3.47;;
5303;SDS011;2674;49.722;10.892;2023-09-18T04:26:27;4.27;;;3.20;;
5303;SDS011;2674;49.722;10.892;2023-09-18T04:28:56;4.33;;;3.93;;
5303;SDS011;2674;49.722;10.892;2023-09-18T04:31:22;3.90;;;3.50;;
5303;SDS011;2674;49.722;10.892;2023-09-18T04:33:48;5.57;;;4.70;;
5303;SDS011;2674;49.722;10.892;2023-09-18T04:36:14;5.90;;;4.90;;
5303;SDS011;2674;49.722;10.892;2023-09-18T04:38:41;4.17;;;3.83;;
5303;SDS011;2674;49.722;10.892;2023-09-18T04:41:06;5.73;;;4.50;;
5303;SDS011;2674;49.722;10.892;2023-09-18T04:43:35;4.33;;;3.70;;
5303;SDS011;2674;49.722;10.892;2023-09-18T04:46:03;4.13;;;3.70;;
5303;SDS011;2674;49.722;10.892;2023-09-18T04:48:32;5.43;;;4.20;;
5303;SDS011;2674;49.722;10.892;2023-09-18T04:50:59;5.20;;;3.63;;
5303;SDS011;2674;49.722;10.892;2023-09-18T04:53:25;4.53;;;4.10;;
5303;SDS011;2674;49.722;10.892;2023-09-18T04:55:54;6.50;;;4.50;;
5303;SDS011;2674;49.722;10.892;2023-09-18T04:58:20;5.10;;;4.60;;
5303;SDS011;2674;49.722;10.892;2023-09-18T05:00:46;10.23;;;4.60;;
5303;SDS011;2674;49.722;10.892;2023-09-18T05:03:22;4.00;;;3.60;;
5303;SDS011;2674;49.722;10.892;2023-09-18T05:05:48;6.97;;;4.90;;
5303;SDS011;2674;49.722;10.892;2023-09-18T05:08:14;4.90;;;4.40;;
5303;SDS011;2674;49.722;10.892;2023-09-18T05:10:40;8.67;;;4.37;;
5303;SDS011;2674;49.722;10.892;2023-09-18T05:13:06;7.20;;;4.60;;
5303;SDS011;2674;49.722;10.892;2023-09-18T05:15:32;4.13;;;3.63;;
5303;SDS011;2674;49.722;10.892;2023-09-18T05:17:59;8.63;;;4.83;;
5303;SDS011;2674;49.722;10.892;2023-09-18T05:20:26;4.37;;;4.00;;
5303;SDS011;2674;49.722;10.892;2023-09-18T05:22:53;4.43;;;4.10;;
5303;SDS011;2674;49.722;10.892;2023-09-18T05:25:27;6.10;;;4.63;;
5303;SDS011;2674;49.722;10.892;2023-09-18T05:27:57;4.60;;;4.20;;
5303;SDS011;2674;49.722;10.892;2023-09-18T05:30:25;5.73;;;5.17;;
5303;SDS011;2674;49.722;10.892;2023-09-18T05:32:57;6.03;;;5.00;;
5303;SDS011;2674;49.722;10.892;2023-09-18T05:35:29;5.33;;;4.70;;
5303;SDS011;2674;49.722;10.892;2023-09-18T05:37:58;5.70;;;5.00;;
5303;SDS011;2674;49.722;10.892;2023-09-18T05:40:24;4.37;;;3.97;;
5303;SDS011;2674;49.722;10.892;2023-09-18T05:42:54;16.50;;;4.80;;
5303;SDS011;2674;49.722;10.892;2023-09-18T05:45:20;7.00;;;4.57;;
5303;SDS011;2674;49.722;10.892;2023-09-18T05:47:47;9.40;;;5.27;;
5303;SDS011;2674;49.722;10.892;2023-09-18T05:50:13;5.83;;;5.27;;
5303;SDS011;2674;49.722;10.892;2023-09-18T05:52:43;5.47;;;4.90;;
5303;SDS011;2674;49.722;10.892;2023-09-18T05:55:09;14.90;;;4.90;;
5303;SDS011;2674;49.722;10.892;2023-09-18T05:57:36;4.50;;;4.10;;
5303;SDS011;2674;49.722;10.892;2023-09-18T06:00:02;5.77;;;4.90;;
5303;SDS011;2674;49.722;10.892;2023-09-18T06:02:28;7.17;;;5.10;;
5303;SDS011;2674;49.722;10.892;2023-09-18T06:04:58;5.67;;;5.07;;
5303;SDS011;2674;49.722;10.892;2023-09-18T06:07:31;7.50;;;4.87;;
5303;SDS011;2674;49.722;10.892;2023-09-18T06:09:57;5.83;;;4.20;;
5303;SDS011;2674;49.722;10.892;2023-09-18T06:12:24;5.73;;;4.60;;
5303;SDS011;2674;49.722;10.892;2023-09-18T06:14:51;4.87;;;4.27;;
5303;SDS011;2674;49.722;10.892;2023-09-18T06:17:17;5.40;;;4.60;;
5303;SDS011;2674;49.722;10.892;2023-09-18T06:19:43;8.10;;;5.10;;
5303;SDS011;2674;49.722;10.892;2023-09-18T06:22:10;6.40;;;5.03;;
5303;SDS011;2674;49.722;10.892;2023-09-18T06:24:37;6.30;;;4.80;;
5303;SDS011;2674;49.722;10.892;2023-09-18T06:27:03;5.57;;;4.90;;
5303;SDS011;2674;49.722;10.892;2023-09-18T06:29:29;5.97;;;5.10;;
5303;SDS011;2674;49.722;10.892;2023-09-18T06:31:56;5.50;;;4.90;;
5303;SDS011;2674;49.722;10.892;2023-09-18T06:34:22;7.33;;;5.00;;
5303;SDS011;2674;49.722;10.892;2023-09-18T06:36:48;6.57;;;4.93;;
5303;SDS011;2674;49.722;10.892;2023-09-18T06:39:14;4.33;;;3.93;;
5303;SDS011;2674;49.722;10.892;2023-09-18T06:41:40;5.20;;;4.70;;
5303;SDS011;2674;49.722;10.892;2023-09-18T06:44:06;5.20;;;4.63;;
5303;SDS011;2674;49.722;10.892;2023-09-18T06:46:32;7.43;;;5.30;;
5303;SDS011;2674;49.722;10.892;2023-09-18T06:48:58;5.23;;;4.33;;
5303;SDS011;2674;49.722;10.892;2023-09-18T06:51:29;8.53;;;5.70;;
5303;SDS011;2674;49.722;10.892;2023-09-18T06:53:54;8.17;;;5.00;;
5303;SDS011;2674;49.722;10.892;2023-09-18T06:56:22;7.17;;;4.90;;
5303;SDS011;2674;49.722;10.892;2023-09-18T06:58:49;5.50;;;5.00;;
5303;SDS011;2674;49.722;10.892;2023-09-18T07:01:16;5.40;;;4.90;;
5303;SDS011;2674;49.722;10.892;2023-09-18T07:03:44;10.80;;;5.80;;
5303;SDS011;2674;49.722;10.892;2023-09-18T07:06:13;5.87;;;4.70;;
5303;SDS011;2674;49.722;10.892;2023-09-18T07:08:42;6.63;;;4.23;;
5303;SDS011;2674;49.722;10.892;2023-09-18T07:11:08;6.73;;;5.60;;
5303;SDS011;2674;49.722;10.892;2023-09-18T07:13:34;6.20;;;5.03;;
5303;SDS011;2674;49.722;10.892;2023-09-18T07:16:00;6.40;;;5.50;;
5303;SDS011;2674;49.722;10.892;2023-09-18T07:18:26;6.30;;;5.03;;
5303;SDS011;2674;49.722;10.892;2023-09-18T07:20:51;7.20;;;5.33;;
5303;SDS011;2674;49.722;10.892;2023-09-18T07:23:17;6.00;;;5.20;;
5303;SDS011;2674;49.722;10.892;2023-09-18T07:25:43;7.07;;;5.30;;
5303;SDS011;2674;49.722;10.892;2023-09-18T07:28:09;5.23;;;4.33;;
5303;SDS011;2674;49.722;10.892;2023-09-18T07:30:41;6.03;;;4.80;;
5303;SDS011;2674;49.722;10.892;2023-09-18T07:33:07;6.40;;;4.73;;
5303;SDS011;2674;49.722;10.892;2023-09-18T07:35:33;6.20;;;4.80;;
5303;SDS011;2674;49.722;10.892;2023-09-18T07:37:58;6.60;;;5.30;;
5303;SDS011;2674;49.722;10.892;2023-09-18T07:40:24;7.40;;;5.27;;
5303;SDS011;2674;49.722;10.892;2023-09-18T07:42:50;7.40;;;5.77;;
5303;SDS011;2674;49.722;10.892;2023-09-18T07:45:16;5.63;;;4.60;;
5303;SDS011;2674;49.722;10.892;2023-09-18T07:47:43;6.00;;;4.13;;
5303;SDS011;2674;49.722;10.892;2023-09-18T07:50:09;5.73;;;4.40;;
5303;SDS011;2674;49.722;10.892;2023-09-18T07:52:35;7.30;;;5.60;;
5303;SDS011;2674;49.722;10.892;2023-09-18T07:55:02;6.90;;;4.80;;
5303;SDS011;2674;49.722;10.892;2023-09-18T07:57:28;6.80;;;5.10;;
5303;SDS011;2674;49.722;10.892;2023-09-18T07:59:55;7.33;;;4.37;;
5303;SDS011;2674;49.722;10.892;2023-09-18T08:02:21;6.53;;;4.83;;
5303;SDS011;2674;49.722;10.892;2023-09-18T08:04:48;5.90;;;4.20;;
5303;SDS011;2674;49.722;10.892;2023-09-18T08:07:15;4.90;;;4.00;;
5303;SDS011;2674;49.722;10.892;2023-09-18T08:09:41;6.43;;;4.43;;
5303;SDS011;2674;49.722;10.892;2023-09-18T08:12:07;7.20;;;5.47;;
5303;SDS011;2674;49.722;10.892;2023-09-18T08:14:34;9.03;;;4.50;;
5303;SDS011;2674;49.722;10.892;2023-09-18T08:17:02;8.90;;;4.40;;
5303;SDS011;2674;49.722;10.892;2023-09-18T08:19:29;13.90;;;5.30;;
5303;SDS011;2674;49.722;10.892;2023-09-18T08:21:57;10.70;;;4.20;;
5303;SDS011;2674;49.722;10.892;2023-09-18T08:24:26;4.13;;;3.63;;
5303;SDS011;2674;49.722;10.892;2023-09-18T08:26:52;7.73;;;4.30;;
5303;SDS011;2674;49.722;10.892;2023-09-18T08:29:19;7.70;;;5.07;;
5303;SDS011;2674;49.722;10.892;2023-09-18T08:31:45;7.33;;;4.70;;
5303;SDS011;2674;49.722;10.892;2023-09-18T08:34:11;5.23;;;3.83;;
5303;SDS011;2674;49.722;10.892;2023-09-18T08:36:37;11.20;;;4.23;;
5303;SDS011;2674;49.722;10.892;2023-09-18T08:39:03;6.03;;;4.17;;
5303;SDS011;2674;49.722;10.892;2023-09-18T08:41:32;6.23;;;3.60;;
5303;SDS011;2674;49.722;10.892;2023-09-18T08:44:00;5.73;;;4.20;;
5303;SDS011;2674;49.722;10.892;2023-09-18T08:46:29;7.53;;;4.10;;
5303;SDS011;2674;49.722;10.892;2023-09-18T08:48:55;11.93;;;4.80;;
5303;SDS011;2674;49.722;10.892;2023-09-18T08:51:22;6.00;;;3.40;;
5303;SDS011;2674;49.722;10.892;2023-09-18T08:53:48;5.60;;;3.77;;
5303;SDS011;2674;49.722;10.892;2023-09-18T08:56:16;9.67;;;4.20;;
5303;SDS011;2674;49.722;10.892;2023-09-18T08:58:43;6.70;;;4.20;;
5303;SDS011;2674;49.722;10.892;2023-09-18T09:01:10;12.33;;;3.87;;
5303;SDS011;2674;49.722;10.892;2023-09-18T09:03:39;6.70;;;3.60;;
5303;SDS011;2674;49.722;10.892;2023-09-18T09:06:07;9.30;;;3.07;;
5303;SDS011;2674;49.722;10.892;2023-09-18T09:08:34;10.40;;;3.27;;
5303;SDS011;2674;49.722;10.892;2023-09-18T09:11:01;4.37;;;3.30;;
5303;SDS011;2674;49.722;10.892;2023-09-18T09:13:27;3.43;;;2.40;;
5303;SDS011;2674;49.722;10.892;2023-09-18T09:15:54;4.90;;;2.13;;
5303;SDS011;2674;49.722;10.892;2023-09-18T09:18:28;7.63;;;2.57;;
5303;SDS011;2674;49.722;10.892;2023-09-18T09:21:00;2.47;;;2.27;;
5303;SDS011;2674;49.722;10.892;2023-09-18T09:23:49;4.40;;;2.50;;
5303;SDS011;2674;49.722;10.892;2023-09-18T09:26:21;8.67;;;2.80;;
5303;SDS011;2674;49.722;10.892;2023-09-18T09:28:48;4.43;;;2.87;;
5303;SDS011;2674;49.722;10.892;2023-09-18T09:33:50;8.30;;;2.57;;
5303;SDS011;2674;49.722;10.892;2023-09-18T09:36:21;4.43;;;2.50;;
5303;SDS011;2674;49.722;10.892;2023-09-18T09:38:47;4.63;;;2.10;;
5303;SDS011;2674;49.722;10.892;2023-09-18T09:41:13;7.80;;;3.80;;
5303;SDS011;2674;49.722;10.892;2023-09-18T09:46:22;7.33;;;2.30;;
5303;SDS011;2674;49.722;10.892;2023-09-18T09:49:04;4.60;;;2.80;;
5303;SDS011;2674;49.722;10.892;2023-09-18T09:51:30;3.50;;;1.80;;
5303;SDS011;2674;49.722;10.892;2023-09-18T09:53:57;4.93;;;1.90;;
5303;SDS011;2674;49.722;10.892;2023-09-18T09:56:42;5.07;;;1.70;;
5303;SDS011;2674;49.722;10.892;2023-09-18T09:59:16;5.10;;;1.60;;
5303;SDS011;2674;49.722;10.892;2023-09-18T10:01:47;4.60;;;2.00;;
5303;SDS011;2674;49.722;10.892;2023-09-18T10:04:17;5.43;;;1.90;;
5303;SDS011;2674;49.722;10.892;2023-09-18T10:06:45;3.00;;;1.40;;
5303;SDS011;2674;49.722;10.892;2023-09-18T10:09:19;3.90;;;1.60;;
5303;SDS011;2674;49.722;10.892;2023-09-18T10:11:46;1.77;;;1.20;;
5303;SDS011;2674;49.722;10.892;2023-09-18T10:14:19;2.87;;;1.33;;
5303;SDS011;2674;49.722;10.892;2023-09-18T10:16:49;10.60;;;1.70;;
5303;SDS011;2674;49.722;10.892;2023-09-18T10:24:41;4.63;;;1.80;;
5303;SDS011;2674;49.722;10.892;2023-09-18T10:27:10;4.63;;;2.67;;
5303;SDS011;2674;49.722;10.892;2023-09-18T10:29:39;3.77;;;1.23;;
5303;SDS011;2674;49.722;10.892;2023-09-18T10:32:07;0.80;;;0.80;;
5303;SDS011;2674;49.722;10.892;2023-09-18T10:34:34;1.33;;;0.93;;
5303;SDS011;2674;49.722;10.892;2023-09-18T10:37:02;2.27;;;0.93;;
5303;SDS011;2674;49.722;10.892;2023-09-18T10:39:34;5.43;;;1.20;;
5303;SDS011;2674;49.722;10.892;2023-09-18T10:42:01;7.97;;;1.27;;
5303;SDS011;2674;49.722;10.892;2023-09-18T10:44:29;4.03;;;0.80;;
5303;SDS011;2674;49.722;10.892;2023-09-18T10:46:58;1.87;;;0.90;;
5303;SDS011;2674;49.722;10.892;2023-09-18T10:49:26;4.43;;;0.87;;
5303;SDS011;2674;49.722;10.892;2023-09-18T10:51:53;1.87;;;1.20;;
5303;SDS011;2674;49.722;10.892;2023-09-18T10:54:22;5.20;;;1.60;;
5303;SDS011;2674;49.722;10.892;2023-09-18T10:56:49;5.70;;;1.00;;
5303;SDS011;2674;49.722;10.892;2023-09-18T10:59:15;4.40;;;2.00;;
5303;SDS011;2674;49.722;10.892;2023-09-18T11:01:42;4.00;;;1.00;;
5303;SDS011;2674;49.722;10.892;2023-09-18T11:04:08;3.67;;;0.80;;
5303;SDS011;2674;49.722;10.892;2023-09-18T11:09:46;2.40;;;1.10;;
5303;SDS011;2674;49.722;10.892;2023-09-18T11:12:14;1.63;;;1.17;;
5303;SDS011;2674;49.722;10.892;2023-09-18T11:20:18;2.50;;;1.27;;
5303;SDS011;2674;49.722;10.892;2023-09-18T11:22:49;3.70;;;0.87;;
5303;SDS011;2674;49.722;10.892;2023-09-18T11:25:28;4.60;;;1.10;;
5303;SDS011;2674;49.722;10.892;2023-09-18T11:28:05;4.57;;;1.23;;
5303;SDS011;2674;49.722;10.892;2023-09-18T11:30:33;8.63;;;1.63;;
5303;SDS011;2674;49.722;10.892;2023-09-18T11:33:04;2.97;;;1.37;;
5303;SDS011;2674;49.722;10.892;2023-09-18T11:35:34;4.83;;;1.37;;
5303;SDS011;2674;49.722;10.892;2023-09-18T11:38:08;3.67;;;0.90;;
5303;SDS011;2674;49.722;10.892;2023-09-18T11:40:35;5.00;;;1.10;;
5303;SDS011;2674;49.722;10.892;2023-09-18T11:43:22;2.30;;;0.90;;
5303;SDS011;2674;49.722;10.892;2023-09-18T11:45:59;1.57;;;1.27;;
5303;SDS011;2674;49.722;10.892;2023-09-18T11:48:29;3.80;;;0.97;;
5303;SDS011;2674;49.722;10.892;2023-09-18T11:50:58;4.00;;;1.13;;
5303;SDS011;2674;49.722;10.892;2023-09-18T11:53:24;1.00;;;0.83;;
5303;SDS011;2674;49.722;10.892;2023-09-18T11:55:52;1.30;;;1.20;;
5303;SDS011;2674;49.722;10.892;2023-09-18T11:58:18;1.30;;;0.80;;
5303;SDS011;2674;49.722;10.892;2023-09-18T12:00:48;2.77;;;1.37;;
5303;SDS011;2674;49.722;10.892;2023-09-18T12:03:21;1.27;;;0.90;;
5303;SDS011;2674;49.722;10.892;2023-09-18T12:05:55;1.50;;;1.40;;
5303;SDS011;2674;49.722;10.892;2023-09-18T12:08:21;6.53;;;2.07;;
5303;SDS011;2674;49.722;10.892;2023-09-18T12:10:49;2.50;;;1.03;;
5303;SDS011;2674;49.722;10.892;2023-09-18T12:13:15;3.30;;;1.30;;
5303;SDS011;2674;49.722;10.892;2023-09-18T12:15:42;2.30;;;1.30;;
5303;SDS011;2674;49.722;10.892;2023-09-18T12:18:11;5.67;;;1.40;;
5303;SDS011;2674;49.722;10.892;2023-09-18T12:20:46;1.67;;;1.30;;
5303;SDS011;2674;49.722;10.892;2023-09-18T12:23:13;2.13;;;1.30;;
5303;SDS011;2674;49.722;10.892;2023-09-18T12:25:40;9.20;;;2.40;;
5303;SDS011;2674;49.722;10.892;2023-09-18T12:28:06;7.00;;;1.80;;
5303;SDS011;2674;49.722;10.892;2023-09-18T12:30:33;2.77;;;1.60;;
5303;SDS011;2674;49.722;10.892;2023-09-18T12:32:59;2.10;;;1.30;;
5303;SDS011;2674;49.722;10.892;2023-09-18T12:35:26;3.00;;;1.43;;
5303;SDS011;2674;49.722;10.892;2023-09-18T12:37:56;10.17;;;1.90;;
5303;SDS011;2674;49.722;10.892;2023-09-18T12:42:53;2.83;;;1.30;;
5303;SDS011;2674;49.722;10.892;2023-09-18T12:45:23;1.10;;;1.00;;
5303;SDS011;2674;49.722;10.892;2023-09-18T12:47:50;3.20;;;1.17;;
5303;SDS011;2674;49.722;10.892;2023-09-18T12:50:17;6.33;;;1.27;;
5303;SDS011;2674;49.722;10.892;2023-09-18T12:52:43;8.23;;;1.70;;
5303;SDS011;2674;49.722;10.892;2023-09-18T12:55:20;3.30;;;1.93;;
5303;SDS011;2674;49.722;10.892;2023-09-18T12:57:52;2.73;;;1.07;;
5303;SDS011;2674;49.722;10.892;2023-09-18T13:00:19;3.60;;;1.87;;
5303;SDS011;2674;49.722;10.892;2023-09-18T13:02:48;5.27;;;1.57;;
5303;SDS011;2674;49.722;10.892;2023-09-18T13:05:20;8.33;;;2.03;;
5303;SDS011;2674;49.722;10.892;2023-09-18T13:07:51;3.60;;;1.53;;
5303;SDS011;2674;49.722;10.892;2023-09-18T13:10:18;4.20;;;1.47;;
5303;SDS011;2674;49.722;10.892;2023-09-18T13:12:51;3.93;;;1.50;;
5303;SDS011;2674;49.722;10.892;2023-09-18T13:17:55;3.73;;;1.60;;
5303;SDS011;2674;49.722;10.892;2023-09-18T13:20:27;2.67;;;1.47;;
5303;SDS011;2674;49.722;10.892;2023-09-18T13:22:54;3.77;;;1.50;;
5303;SDS011;2674;49.722;10.892;2023-09-18T13:25:22;2.80;;;1.20;;
5303;SDS011;2674;49.722;10.892;2023-09-18T13:27:50;6.30;;;2.53;;
5303;SDS011;2674;49.722;10.892;2023-09-18T13:30:17;4.23;;;1.70;;
5303;SDS011;2674;49.722;10.892;2023-09-18T13:32:44;4.13;;;3.73;;
5303;SDS011;2674;49.722;10.892;2023-09-18T13:35:10;2.17;;;1.50;;
5303;SDS011;2674;49.722;10.892;2023-09-18T13:37:39;5.20;;;1.70;;
5303;SDS011;2674;49.722;10.892;2023-09-18T13:40:06;6.17;;;1.10;;
5303;SDS011;2674;49.722;10.892;2023-09-18T13:42:34;6.00;;;1.30;;
5303;SDS011;2674;49.722;10.892;2023-09-18T13:45:00;1.10;;;1.00;;
5303;SDS011;2674;49.722;10.892;2023-09-18T13:47:27;1.50;;;1.40;;
5303;SDS011;2674;49.722;10.892;2023-09-18T13:49:53;2.70;;;0.97;;
5303;SDS011;2674;49.722;10.892;2023-09-18T13:52:22;2.80;;;1.37;;
5303;SDS011;2674;49.722;10.892;2023-09-18T13:54:48;3.00;;;1.40;;
5303;SDS011;2674;49.722;10.892;2023-09-18T13:57:19;1.97;;;1.10;;
5303;SDS011;2674;49.722;10.892;2023-09-18T13:59:46;3.03;;;1.00;;
5303;SDS011;2674;49.722;10.892;2023-09-18T14:02:14;2.40;;;1.10;;
5303;SDS011;2674;49.722;10.892;2023-09-18T14:04:40;1.73;;;1.13;;
5303;SDS011;2674;49.722;10.892;2023-09-18T14:07:07;2.50;;;1.03;;
5303;SDS011;2674;49.722;10.892;2023-09-18T14:09:34;2.73;;;0.83;;
5303;SDS011;2674;49.722;10.892;2023-09-18T14:12:00;2.37;;;1.03;;
5303;SDS011;2674;49.722;10.892;2023-09-18T14:14:30;4.27;;;2.53;;
5303;SDS011;2674;49.722;10.892;2023-09-18T14:16:57;7.77;;;2.60;;
5303;SDS011;2674;49.722;10.892;2023-09-18T14:19:23;3.97;;;2.03;;
5303;SDS011;2674;49.722;10.892;2023-09-18T14:21:49;1.30;;;1.20;;
5303;SDS011;2674;49.722;10.892;2023-09-18T14:24:15;3.30;;;1.10;;
5303;SDS011;2674;49.722;10.892;2023-09-18T14:26:47;3.20;;;1.00;;
5303;SDS011;2674;49.722;10.892;2023-09-18T14:29:14;7.53;;;1.47;;
5303;SDS011;2674;49.722;10.892;2023-09-18T14:31:40;5.20;;;1.03;;
5303;SDS011;2674;49.722;10.892;2023-09-18T14:34:06;1.90;;;1.37;;
5303;SDS011;2674;49.722;10.892;2023-09-18T14:36:33;4.67;;;0.90;;
5303;SDS011;2674;49.722;10.892;2023-09-18T14:39:01;2.10;;;1.10;;
5303;SDS011;2674;49.722;10.892;2023-09-18T14:41:34;0.90;;;0.90;;
5303;SDS011;2674;49.722;10.892;2023-09-18T14:44:03;2.80;;;1.57;;
5303;SDS011;2674;49.722;10.892;2023-09-18T14:46:30;2.70;;;1.87;;
5303;SDS011;2674;49.722;10.892;2023-09-18T14:49:00;3.27;;;1.47;;
5303;SDS011;2674;49.722;10.892;2023-09-18T14:51:29;2.60;;;1.10;;
5303;SDS011;2674;49.722;10.892;2023-09-18T14:53:57;1.17;;;0.80;;
5303;SDS011;2674;49.722;10.892;2023-09-18T14:56:23;1.40;;;1.20;;
5303;SDS011;2674;49.722;10.892;2023-09-18T14:58:49;3.57;;;1.33;;
5303;SDS011;2674;49.722;10.892;2023-09-18T15:01:19;1.30;;;1.20;;
5303;SDS011;2674;49.722;10.892;2023-09-18T15:03:46;3.83;;;1.50;;
5303;SDS011;2674;49.722;10.892;2023-09-18T15:06:13;4.90;;;1.10;;
5303;SDS011;2674;49.722;10.892;2023-09-18T15:08:39;2.83;;;1.30;;
5303;SDS011;2674;49.722;10.892;2023-09-18T15:11:05;5.13;;;1.47;;
5303;SDS011;2674;49.722;10.892;2023-09-18T15:13:31;1.57;;;1.10;;
5303;SDS011;2674;49.722;10.892;2023-09-18T15:15:59;1.90;;;1.37;;
5303;SDS011;2674;49.722;10.892;2023-09-18T15:18:28;0.90;;;0.90;;
5303;SDS011;2674;49.722;10.892;2023-09-18T15:20:54;3.73;;;0.90;;
5303;SDS011;2674;49.722;10.892;2023-09-18T15:23:24;2.30;;;1.07;;
5303;SDS011;2674;49.722;10.892;2023-09-18T15:25:50;1.70;;;1.07;;
5303;SDS011;2674;49.722;10.892;2023-09-18T15:28:19;1.80;;;1.13;;
5303;SDS011;2674;49.722;10.892;2023-09-18T15:30:45;2.50;;;1.37;;